sensor_id;sensor_type;location;lat;lon;timestamp;P1;durP1;ratioP1;P2;durP2;ratioP2
61397;SDS011;47267;48.130;-2.040;2023-02-22T00:00:40;6.55;;;4.10;;
61397;SDS011;47267;48.130;-2.040;2023-02-22T00:05:39;4.90;;;4.40;;
61397;SDS011;47267;48.130;-2.040;2023-02-22T00:08:14;5.47;;;4.22;;
61397;SDS011;47267;48.130;-2.040;2023-02-22T00:10:41;5.82;;;4.32;;
61397;SDS011;47267;48.130;-2.040;2023-02-22T00:13:08;5.35;;;4.40;;
61397;SDS011;47267;48.130;-2.040;2023-02-22T00:15:37;6.53;;;4.50;;
61397;SDS011;47267;48.130;-2.040;2023-02-22T00:18:07;4.22;;;3.83;;
61397;SDS011;47267;48.130;-2.040;2023-02-22T00:20:36;4.80;;;4.28;;
61397;SDS011;47267;48.130;-2.040;2023-02-22T00:23:03;4.68;;;3.97;;
61397;SDS011;47267;48.130;-2.040;2023-02-22T00:25:31;5.00;;;4.38;;
61397;SDS011;47267;48.130;-2.040;2023-02-22T00:27:57;5.68;;;4.40;;
61397;SDS011;47267;48.130;-2.040;2023-02-22T00:30:26;5.45;;;4.07;;
61397;SDS011;47267;48.130;-2.040;2023-02-22T00:32:54;5.57;;;4.22;;
61397;SDS011;47267;48.130;-2.040;2023-02-22T00:35:21;5.68;;;4.63;;
61397;SDS011;47267;48.130;-2.040;2023-02-22T00:37:54;4.97;;;4.32;;
61397;SDS011;47267;48.130;-2.040;2023-02-22T00:40:23;6.13;;;4.50;;
61397;SDS011;47267;48.130;-2.040;2023-02-22T00:42:50;5.05;;;4.35;;
61397;SDS011;47267;48.130;-2.040;2023-02-22T00:45:18;5.50;;;4.40;;
61397;SDS011;47267;48.130;-2.040;2023-02-22T00:47:45;5.53;;;4.70;;
61397;SDS011;47267;48.130;-2.040;2023-02-22T00:50:11;4.93;;;4.35;;
61397;SDS011;47267;48.130;-2.040;2023-02-22T00:52:37;5.05;;;4.40;;
61397;SDS011;47267;48.130;-2.040;2023-02-22T00:55:04;4.75;;;4.25;;
61397;SDS011;47267;48.130;-2.040;2023-02-22T00:57:31;5.60;;;3.90;;
61397;SDS011;47267;48.130;-2.040;2023-02-22T01:00:05;4.82;;;4.20;;
61397;SDS011;47267;48.130;-2.040;2023-02-22T01:02:40;5.88;;;4.68;;
61397;SDS011;47267;48.130;-2.040;2023-02-22T01:05:08;6.38;;;4.57;;
61397;SDS011;47267;48.130;-2.040;2023-02-22T01:07:40;4.93;;;4.07;;
61397;SDS011;47267;48.130;-2.040;2023-02-22T01:10:07;4.40;;;4.00;;
61397;SDS011;47267;48.130;-2.040;2023-02-22T01:12:34;5.00;;;4.30;;
61397;SDS011;47267;48.130;-2.040;2023-02-22T01:15:00;4.90;;;4.32;;
61397;SDS011;47267;48.130;-2.040;2023-02-22T01:17:28;4.97;;;4.45;;
61397;SDS011;47267;48.130;-2.040;2023-02-22T01:19:54;5.70;;;4.40;;
61397;SDS011;47267;48.130;-2.040;2023-02-22T01:22:20;5.40;;;4.35;;
61397;SDS011;47267;48.130;-2.040;2023-02-22T01:24:47;5.85;;;4.45;;
61397;SDS011;47267;48.130;-2.040;2023-02-22T01:27:14;9.35;;;4.47;;
61397;SDS011;47267;48.130;-2.040;2023-02-22T01:29:40;5.90;;;4.65;;
61397;SDS011;47267;48.130;-2.040;2023-02-22T01:32:06;5.13;;;4.43;;
61397;SDS011;47267;48.130;-2.040;2023-02-22T01:34:32;5.07;;;4.45;;
61397;SDS011;47267;48.130;-2.040;2023-02-22T01:36:58;4.40;;;4.00;;
61397;SDS011;47267;48.130;-2.040;2023-02-22T01:39:25;5.13;;;4.63;;
61397;SDS011;47267;48.130;-2.040;2023-02-22T01:41:51;4.82;;;4.32;;
61397;SDS011;47267;48.130;-2.040;2023-02-22T01:46:57;6.22;;;4.78;;
61397;SDS011;47267;48.130;-2.040;2023-02-22T01:49:25;5.72;;;4.32;;
61397;SDS011;47267;48.130;-2.040;2023-02-22T01:51:58;4.55;;;4.05;;
61397;SDS011;47267;48.130;-2.040;2023-02-22T01:54:32;4.53;;;4.10;;
61397;SDS011;47267;48.130;-2.040;2023-02-22T01:59:41;4.88;;;3.90;;
61397;SDS011;47267;48.130;-2.040;2023-02-22T02:02:10;4.40;;;3.60;;
61397;SDS011;47267;48.130;-2.040;2023-02-22T02:04:37;5.32;;;4.50;;
61397;SDS011;47267;48.130;-2.040;2023-02-22T02:07:06;6.05;;;4.30;;
61397;SDS011;47267;48.130;-2.040;2023-02-22T02:09:37;4.78;;;4.03;;
61397;SDS011;47267;48.130;-2.040;2023-02-22T02:12:11;5.13;;;4.32;;
61397;SDS011;47267;48.130;-2.040;2023-02-22T02:14:40;5.00;;;4.30;;
61397;SDS011;47267;48.130;-2.040;2023-02-22T02:17:07;5.13;;;4.63;;
61397;SDS011;47267;48.130;-2.040;2023-02-22T02:28:16;4.78;;;4.07;;
61397;SDS011;47267;48.130;-2.040;2023-02-22T02:33:10;4.50;;;3.90;;
61397;SDS011;47267;48.130;-2.040;2023-02-22T02:35:49;5.03;;;4.03;;
61397;SDS011;47267;48.130;-2.040;2023-02-22T02:41:18;4.55;;;4.00;;
61397;SDS011;47267;48.130;-2.040;2023-02-22T02:44:14;4.68;;;4.13;;
61397;SDS011;47267;48.130;-2.040;2023-02-22T02:46:51;5.65;;;4.10;;
61397;SDS011;47267;48.130;-2.040;2023-02-22T02:50:11;5.18;;;3.80;;
61397;SDS011;47267;48.130;-2.040;2023-02-22T02:52:13;4.95;;;4.20;;
61397;SDS011;47267;48.130;-2.040;2023-02-22T02:54:43;4.82;;;4.15;;
61397;SDS011;47267;48.130;-2.040;2023-02-22T02:57:10;5.80;;;4.50;;
61397;SDS011;47267;48.130;-2.040;2023-02-22T02:59:36;5.40;;;4.38;;
61397;SDS011;47267;48.130;-2.040;2023-02-22T03:07:19;5.15;;;3.97;;
61397;SDS011;47267;48.130;-2.040;2023-02-22T03:20:37;5.00;;;4.13;;
61397;SDS011;47267;48.130;-2.040;2023-02-22T03:23:23;4.85;;;3.95;;
61397;SDS011;47267;48.130;-2.040;2023-02-22T03:26:16;4.03;;;3.63;;
61397;SDS011;47267;48.130;-2.040;2023-02-22T03:28:53;4.22;;;3.63;;
61397;SDS011;47267;48.130;-2.040;2023-02-22T03:31:27;4.65;;;3.88;;
61397;SDS011;47267;48.130;-2.040;2023-02-22T03:34:10;5.35;;;4.68;;
61397;SDS011;47267;48.130;-2.040;2023-02-22T03:36:46;4.32;;;3.70;;
61397;SDS011;47267;48.130;-2.040;2023-02-22T03:39:16;4.22;;;3.80;;
61397;SDS011;47267;48.130;-2.040;2023-02-22T03:41:45;3.60;;;3.20;;
61397;SDS011;47267;48.130;-2.040;2023-02-22T03:44:17;5.22;;;4.05;;
61397;SDS011;47267;48.130;-2.040;2023-02-22T03:46:45;5.20;;;3.97;;
61397;SDS011;47267;48.130;-2.040;2023-02-22T03:49:19;4.35;;;3.95;;
61397;SDS011;47267;48.130;-2.040;2023-02-22T03:52:01;4.50;;;3.63;;
61397;SDS011;47267;48.130;-2.040;2023-02-22T03:54:28;5.95;;;4.05;;
61397;SDS011;47267;48.130;-2.040;2023-02-22T03:56:59;4.75;;;4.00;;
61397;SDS011;47267;48.130;-2.040;2023-02-22T03:59:51;5.47;;;4.13;;
61397;SDS011;47267;48.130;-2.040;2023-02-22T04:02:17;4.28;;;3.55;;
61397;SDS011;47267;48.130;-2.040;2023-02-22T04:04:43;4.93;;;3.92;;
61397;SDS011;47267;48.130;-2.040;2023-02-22T04:07:12;4.43;;;4.00;;
61397;SDS011;47267;48.130;-2.040;2023-02-22T04:09:38;4.40;;;3.92;;
61397;SDS011;47267;48.130;-2.040;2023-02-22T04:12:03;6.15;;;3.90;;
61397;SDS011;47267;48.130;-2.040;2023-02-22T04:14:29;4.25;;;3.75;;
61397;SDS011;47267;48.130;-2.040;2023-02-22T04:16:55;3.83;;;3.42;;
61397;SDS011;47267;48.130;-2.040;2023-02-22T04:19:21;4.82;;;3.83;;
61397;SDS011;47267;48.130;-2.040;2023-02-22T04:21:47;3.90;;;3.28;;
61397;SDS011;47267;48.130;-2.040;2023-02-22T04:24:13;4.50;;;3.63;;
61397;SDS011;47267;48.130;-2.040;2023-02-22T04:26:38;4.18;;;3.63;;
61397;SDS011;47267;48.130;-2.040;2023-02-22T04:29:04;5.00;;;4.25;;
61397;SDS011;47267;48.130;-2.040;2023-02-22T04:31:30;3.85;;;3.35;;
61397;SDS011;47267;48.130;-2.040;2023-02-22T04:33:57;4.10;;;3.60;;
61397;SDS011;47267;48.130;-2.040;2023-02-22T04:36:24;4.88;;;4.05;;
61397;SDS011;47267;48.130;-2.040;2023-02-22T04:38:51;6.75;;;3.92;;
61397;SDS011;47267;48.130;-2.040;2023-02-22T04:41:19;5.28;;;4.20;;
61397;SDS011;47267;48.130;-2.040;2023-02-22T04:43:45;4.18;;;3.35;;
61397;SDS011;47267;48.130;-2.040;2023-02-22T04:46:11;4.65;;;3.72;;
61397;SDS011;47267;48.130;-2.040;2023-02-22T04:48:37;4.68;;;3.67;;
61397;SDS011;47267;48.130;-2.040;2023-02-22T04:51:03;3.75;;;3.35;;
61397;SDS011;47267;48.130;-2.040;2023-02-22T04:53:29;4.43;;;3.63;;
61397;SDS011;47267;48.130;-2.040;2023-02-22T04:55:56;4.70;;;3.70;;
61397;SDS011;47267;48.130;-2.040;2023-02-22T04:58:21;4.88;;;3.72;;
61397;SDS011;47267;48.130;-2.040;2023-02-22T05:00:47;4.93;;;3.25;;
61397;SDS011;47267;48.130;-2.040;2023-02-22T05:03:13;4.05;;;3.65;;
61397;SDS011;47267;48.130;-2.040;2023-02-22T05:05:39;4.63;;;3.75;;
61397;SDS011;47267;48.130;-2.040;2023-02-22T05:08:04;5.00;;;3.63;;
61397;SDS011;47267;48.130;-2.040;2023-02-22T05:10:30;4.32;;;3.90;;
61397;SDS011;47267;48.130;-2.040;2023-02-22T05:12:56;4.10;;;3.70;;
61397;SDS011;47267;48.130;-2.040;2023-02-22T05:15:21;3.92;;;3.53;;
61397;SDS011;47267;48.130;-2.040;2023-02-22T05:17:49;4.43;;;3.60;;
61397;SDS011;47267;48.130;-2.040;2023-02-22T05:20:33;4.50;;;3.28;;
61397;SDS011;47267;48.130;-2.040;2023-02-22T05:23:02;4.72;;;3.67;;
61397;SDS011;47267;48.130;-2.040;2023-02-22T05:25:29;5.20;;;3.97;;
61397;SDS011;47267;48.130;-2.040;2023-02-22T05:27:55;4.28;;;3.67;;
61397;SDS011;47267;48.130;-2.040;2023-02-22T05:30:24;4.25;;;3.83;;
61397;SDS011;47267;48.130;-2.040;2023-02-22T05:32:52;4.90;;;3.92;;
61397;SDS011;47267;48.130;-2.040;2023-02-22T05:35:21;4.95;;;3.72;;
61397;SDS011;47267;48.130;-2.040;2023-02-22T05:37:47;4.25;;;3.50;;
61397;SDS011;47267;48.130;-2.040;2023-02-22T05:40:15;4.65;;;3.38;;
61397;SDS011;47267;48.130;-2.040;2023-02-22T05:42:43;3.95;;;3.30;;
61397;SDS011;47267;48.130;-2.040;2023-02-22T05:45:11;4.45;;;3.55;;
61397;SDS011;47267;48.130;-2.040;2023-02-22T05:47:38;4.10;;;3.60;;
61397;SDS011;47267;48.130;-2.040;2023-02-22T05:50:04;4.30;;;3.60;;
61397;SDS011;47267;48.130;-2.040;2023-02-22T05:52:30;4.45;;;3.28;;
61397;SDS011;47267;48.130;-2.040;2023-02-22T05:54:55;3.92;;;3.45;;
61397;SDS011;47267;48.130;-2.040;2023-02-22T05:57:21;4.40;;;3.85;;
61397;SDS011;47267;48.130;-2.040;2023-02-22T05:59:47;4.85;;;3.30;;
61397;SDS011;47267;48.130;-2.040;2023-02-22T06:02:13;3.95;;;3.50;;
61397;SDS011;47267;48.130;-2.040;2023-02-22T06:04:38;3.67;;;3.28;;
61397;SDS011;47267;48.130;-2.040;2023-02-22T06:07:04;3.85;;;3.42;;
61397;SDS011;47267;48.130;-2.040;2023-02-22T06:09:30;4.35;;;3.42;;
61397;SDS011;47267;48.130;-2.040;2023-02-22T06:11:56;4.10;;;3.50;;
61397;SDS011;47267;48.130;-2.040;2023-02-22T06:14:22;4.60;;;3.60;;
61397;SDS011;47267;48.130;-2.040;2023-02-22T06:16:55;4.72;;;3.60;;
61397;SDS011;47267;48.130;-2.040;2023-02-22T06:19:21;3.92;;;3.33;;
61397;SDS011;47267;48.130;-2.040;2023-02-22T06:21:50;4.38;;;3.83;;
61397;SDS011;47267;48.130;-2.040;2023-02-22T06:24:21;4.13;;;3.70;;
61397;SDS011;47267;48.130;-2.040;2023-02-22T06:26:54;4.25;;;3.38;;
61397;SDS011;47267;48.130;-2.040;2023-02-22T06:29:21;3.58;;;3.15;;
61397;SDS011;47267;48.130;-2.040;2023-02-22T06:31:48;4.57;;;3.28;;
61397;SDS011;47267;48.130;-2.040;2023-02-22T06:34:14;3.42;;;3.13;;
61397;SDS011;47267;48.130;-2.040;2023-02-22T06:36:41;4.13;;;3.25;;
61397;SDS011;47267;48.130;-2.040;2023-02-22T06:39:07;3.97;;;3.28;;
61397;SDS011;47267;48.130;-2.040;2023-02-22T06:41:37;3.28;;;2.97;;
61397;SDS011;47267;48.130;-2.040;2023-02-22T06:44:04;3.42;;;2.92;;
61397;SDS011;47267;48.130;-2.040;2023-02-22T06:46:30;3.47;;;3.15;;
61397;SDS011;47267;48.130;-2.040;2023-02-22T06:48:56;4.20;;;3.50;;
61397;SDS011;47267;48.130;-2.040;2023-02-22T06:51:23;3.83;;;3.28;;
61397;SDS011;47267;48.130;-2.040;2023-02-22T06:53:50;4.30;;;3.25;;
61397;SDS011;47267;48.130;-2.040;2023-02-22T06:56:15;4.10;;;3.28;;
61397;SDS011;47267;48.130;-2.040;2023-02-22T06:58:41;4.13;;;3.50;;
61397;SDS011;47267;48.130;-2.040;2023-02-22T07:01:08;4.57;;;3.22;;
61397;SDS011;47267;48.130;-2.040;2023-02-22T07:03:34;4.65;;;3.40;;
61397;SDS011;47267;48.130;-2.040;2023-02-22T07:06:00;4.05;;;3.17;;
61397;SDS011;47267;48.130;-2.040;2023-02-22T07:08:26;3.80;;;3.17;;
61397;SDS011;47267;48.130;-2.040;2023-02-22T07:10:52;3.60;;;2.85;;
61397;SDS011;47267;48.130;-2.040;2023-02-22T07:13:18;3.47;;;3.05;;
61397;SDS011;47267;48.130;-2.040;2023-02-22T07:15:44;4.32;;;3.30;;
61397;SDS011;47267;48.130;-2.040;2023-02-22T07:18:10;4.60;;;3.58;;
61397;SDS011;47267;48.130;-2.040;2023-02-22T07:20:36;3.53;;;2.90;;
61397;SDS011;47267;48.130;-2.040;2023-02-22T07:23:03;4.03;;;3.47;;
61397;SDS011;47267;48.130;-2.040;2023-02-22T07:25:29;3.63;;;3.10;;
61397;SDS011;47267;48.130;-2.040;2023-02-22T07:27:55;3.92;;;3.15;;
61397;SDS011;47267;48.130;-2.040;2023-02-22T07:30:25;3.78;;;3.10;;
61397;SDS011;47267;48.130;-2.040;2023-02-22T07:32:59;4.07;;;2.92;;
61397;SDS011;47267;48.130;-2.040;2023-02-22T07:37:57;3.40;;;2.55;;
61397;SDS011;47267;48.130;-2.040;2023-02-22T07:40:23;3.70;;;3.30;;
61397;SDS011;47267;48.130;-2.040;2023-02-22T07:43:00;3.55;;;2.83;;
61397;SDS011;47267;48.130;-2.040;2023-02-22T07:45:28;3.55;;;2.95;;
61397;SDS011;47267;48.130;-2.040;2023-02-22T07:47:56;3.83;;;3.00;;
61397;SDS011;47267;48.130;-2.040;2023-02-22T07:50:23;5.38;;;3.00;;
61397;SDS011;47267;48.130;-2.040;2023-02-22T07:52:51;3.03;;;2.55;;
61397;SDS011;47267;48.130;-2.040;2023-02-22T07:55:19;3.75;;;3.20;;
61397;SDS011;47267;48.130;-2.040;2023-02-22T07:57:47;3.17;;;2.75;;
61397;SDS011;47267;48.130;-2.040;2023-02-22T08:00:19;3.10;;;2.80;;
61397;SDS011;47267;48.130;-2.040;2023-02-22T08:02:50;3.85;;;2.75;;
61397;SDS011;47267;48.130;-2.040;2023-02-22T08:05:16;4.28;;;3.15;;
61397;SDS011;47267;48.130;-2.040;2023-02-22T08:07:42;3.95;;;3.20;;
61397;SDS011;47267;48.130;-2.040;2023-02-22T08:10:08;3.72;;;2.92;;
61397;SDS011;47267;48.130;-2.040;2023-02-22T08:12:35;3.78;;;3.30;;
61397;SDS011;47267;48.130;-2.040;2023-02-22T08:15:03;4.05;;;2.92;;
61397;SDS011;47267;48.130;-2.040;2023-02-22T08:17:29;3.42;;;2.80;;
61397;SDS011;47267;48.130;-2.040;2023-02-22T08:19:55;3.25;;;2.95;;
61397;SDS011;47267;48.130;-2.040;2023-02-22T08:22:21;3.15;;;2.80;;
61397;SDS011;47267;48.130;-2.040;2023-02-22T08:24:48;3.53;;;2.90;;
61397;SDS011;47267;48.130;-2.040;2023-02-22T08:27:21;3.25;;;2.88;;
61397;SDS011;47267;48.130;-2.040;2023-02-22T08:29:54;3.60;;;2.90;;
61397;SDS011;47267;48.130;-2.040;2023-02-22T08:32:20;3.58;;;2.55;;
61397;SDS011;47267;48.130;-2.040;2023-02-22T08:34:47;3.95;;;2.92;;
61397;SDS011;47267;48.130;-2.040;2023-02-22T08:37:13;3.78;;;2.90;;
61397;SDS011;47267;48.130;-2.040;2023-02-22T08:39:40;4.10;;;3.05;;
61397;SDS011;47267;48.130;-2.040;2023-02-22T08:42:06;2.92;;;2.50;;
61397;SDS011;47267;48.130;-2.040;2023-02-22T08:44:33;3.22;;;2.92;;
61397;SDS011;47267;48.130;-2.040;2023-02-22T08:47:00;3.90;;;2.95;;
61397;SDS011;47267;48.130;-2.040;2023-02-22T08:49:26;3.63;;;2.88;;
61397;SDS011;47267;48.130;-2.040;2023-02-22T08:51:51;3.95;;;2.92;;
61397;SDS011;47267;48.130;-2.040;2023-02-22T08:54:17;3.67;;;2.90;;
61397;SDS011;47267;48.130;-2.040;2023-02-22T08:56:43;2.92;;;2.60;;
61397;SDS011;47267;48.130;-2.040;2023-02-22T08:59:08;3.67;;;2.65;;
61397;SDS011;47267;48.130;-2.040;2023-02-22T09:01:34;3.85;;;2.80;;
61397;SDS011;47267;48.130;-2.040;2023-02-22T09:04:00;3.70;;;2.90;;
61397;SDS011;47267;48.130;-2.040;2023-02-22T09:06:27;3.30;;;2.50;;
61397;SDS011;47267;48.130;-2.040;2023-02-22T09:08:53;3.10;;;2.60;;
61397;SDS011;47267;48.130;-2.040;2023-02-22T09:11:19;2.97;;;2.53;;
61397;SDS011;47267;48.130;-2.040;2023-02-22T09:13:45;3.35;;;2.60;;
61397;SDS011;47267;48.130;-2.040;2023-02-22T09:16:11;3.75;;;2.70;;
61397;SDS011;47267;48.130;-2.040;2023-02-22T09:18:36;3.97;;;2.47;;
61397;SDS011;47267;48.130;-2.040;2023-02-22T09:21:03;3.47;;;2.60;;
61397;SDS011;47267;48.130;-2.040;2023-02-22T09:23:31;3.38;;;2.45;;
61397;SDS011;47267;48.130;-2.040;2023-02-22T09:25:58;3.03;;;2.33;;
61397;SDS011;47267;48.130;-2.040;2023-02-22T09:28:24;2.78;;;2.40;;
61397;SDS011;47267;48.130;-2.040;2023-02-22T09:30:51;3.05;;;2.40;;
61397;SDS011;47267;48.130;-2.040;2023-02-22T09:33:19;3.25;;;2.35;;
61397;SDS011;47267;48.130;-2.040;2023-02-22T09:35:46;3.05;;;2.60;;
61397;SDS011;47267;48.130;-2.040;2023-02-22T09:38:20;2.80;;;2.25;;
61397;SDS011;47267;48.130;-2.040;2023-02-22T09:40:49;3.35;;;2.50;;
61397;SDS011;47267;48.130;-2.040;2023-02-22T09:49:04;2.58;;;2.13;;
61397;SDS011;47267;48.130;-2.040;2023-02-22T09:52:00;2.58;;;2.20;;
61397;SDS011;47267;48.130;-2.040;2023-02-22T09:57:03;2.80;;;2.55;;
61397;SDS011;47267;48.130;-2.040;2023-02-22T09:59:38;3.10;;;2.55;;
61397;SDS011;47267;48.130;-2.040;2023-02-22T10:04:41;2.72;;;2.30;;
61397;SDS011;47267;48.130;-2.040;2023-02-22T10:07:45;2.42;;;2.22;;
61397;SDS011;47267;48.130;-2.040;2023-02-22T10:10:16;1.95;;;1.67;;
61397;SDS011;47267;48.130;-2.040;2023-02-22T10:21:01;2.55;;;2.10;;
61397;SDS011;47267;48.130;-2.040;2023-02-22T10:23:44;2.80;;;2.30;;
61397;SDS011;47267;48.130;-2.040;2023-02-22T10:26:27;2.92;;;2.30;;
61397;SDS011;47267;48.130;-2.040;2023-02-22T10:31:41;2.70;;;2.08;;
61397;SDS011;47267;48.130;-2.040;2023-02-22T10:34:12;2.30;;;2.00;;
61397;SDS011;47267;48.130;-2.040;2023-02-22T10:36:44;2.38;;;2.10;;
61397;SDS011;47267;48.130;-2.040;2023-02-22T10:39:22;1.80;;;1.63;;
61397;SDS011;47267;48.130;-2.040;2023-02-22T10:41:57;2.78;;;2.17;;
61397;SDS011;47267;48.130;-2.040;2023-02-22T10:44:32;2.42;;;1.77;;
61397;SDS011;47267;48.130;-2.040;2023-02-22T10:47:02;2.47;;;1.80;;
61397;SDS011;47267;48.130;-2.040;2023-02-22T10:49:35;2.67;;;2.20;;
61397;SDS011;47267;48.130;-2.040;2023-02-22T10:52:39;2.35;;;2.10;;
61397;SDS011;47267;48.130;-2.040;2023-02-22T10:54:59;2.40;;;2.10;;
61397;SDS011;47267;48.130;-2.040;2023-02-22T10:57:27;2.25;;;2.05;;
61397;SDS011;47267;48.130;-2.040;2023-02-22T11:00:18;2.33;;;2.13;;
61397;SDS011;47267;48.130;-2.040;2023-02-22T11:03:00;2.38;;;1.80;;
61397;SDS011;47267;48.130;-2.040;2023-02-22T11:05:41;5.00;;;2.13;;
61397;SDS011;47267;48.130;-2.040;2023-02-22T11:10:44;3.33;;;1.73;;
61397;SDS011;47267;48.130;-2.040;2023-02-22T11:13:25;2.70;;;1.88;;
61397;SDS011;47267;48.130;-2.040;2023-02-22T11:15:58;2.25;;;1.85;;
61397;SDS011;47267;48.130;-2.040;2023-02-22T11:18:34;4.22;;;2.17;;
61397;SDS011;47267;48.130;-2.040;2023-02-22T11:21:07;3.50;;;2.30;;
61397;SDS011;47267;48.130;-2.040;2023-02-22T11:23:36;4.03;;;1.70;;
61397;SDS011;47267;48.130;-2.040;2023-02-22T11:26:06;2.75;;;2.30;;
61397;SDS011;47267;48.130;-2.040;2023-02-22T11:28:35;3.40;;;2.20;;
61397;SDS011;47267;48.130;-2.040;2023-02-22T11:31:14;2.30;;;1.95;;
61397;SDS011;47267;48.130;-2.040;2023-02-22T11:33:47;2.95;;;2.15;;
61397;SDS011;47267;48.130;-2.040;2023-02-22T11:36:52;3.53;;;1.80;;
61397;SDS011;47267;48.130;-2.040;2023-02-22T11:39:25;2.72;;;2.05;;
61397;SDS011;47267;48.130;-2.040;2023-02-22T11:41:54;4.18;;;2.00;;
61397;SDS011;47267;48.130;-2.040;2023-02-22T11:46:49;2.70;;;2.08;;
61397;SDS011;47267;48.130;-2.040;2023-02-22T11:49:19;3.97;;;2.17;;
61397;SDS011;47267;48.130;-2.040;2023-02-22T11:59:56;8.18;;;2.63;;
61397;SDS011;47267;48.130;-2.040;2023-02-22T12:08:30;2.90;;;2.08;;
61397;SDS011;47267;48.130;-2.040;2023-02-22T12:11:25;5.63;;;2.63;;
61397;SDS011;47267;48.130;-2.040;2023-02-22T12:16:35;3.83;;;2.03;;
61397;SDS011;47267;48.130;-2.040;2023-02-22T12:19:21;5.30;;;2.35;;
61397;SDS011;47267;48.130;-2.040;2023-02-22T12:21:56;6.30;;;2.40;;
61397;SDS011;47267;48.130;-2.040;2023-02-22T12:24:45;6.70;;;2.45;;
61397;SDS011;47267;48.130;-2.040;2023-02-22T12:27:26;6.20;;;2.38;;
61397;SDS011;47267;48.130;-2.040;2023-02-22T12:30:01;6.60;;;2.22;;
61397;SDS011;47267;48.130;-2.040;2023-02-22T12:32:31;5.13;;;2.00;;
61397;SDS011;47267;48.130;-2.040;2023-02-22T12:43:09;7.93;;;2.13;;
61397;SDS011;47267;48.130;-2.040;2023-02-22T12:46:03;7.20;;;2.30;;
61397;SDS011;47267;48.130;-2.040;2023-02-22T12:48:56;8.77;;;1.88;;
61397;SDS011;47267;48.130;-2.040;2023-02-22T13:00:13;6.18;;;1.95;;
61397;SDS011;47267;48.130;-2.040;2023-02-22T13:02:47;5.53;;;2.00;;
61397;SDS011;47267;48.130;-2.040;2023-02-22T13:05:49;6.18;;;2.05;;
61397;SDS011;47267;48.130;-2.040;2023-02-22T13:08:54;6.03;;;2.38;;
61397;SDS011;47267;48.130;-2.040;2023-02-22T13:16:30;4.47;;;2.08;;
61397;SDS011;47267;48.130;-2.040;2023-02-22T13:21:52;4.13;;;1.88;;
61397;SDS011;47267;48.130;-2.040;2023-02-22T13:27:25;6.93;;;2.10;;
61397;SDS011;47267;48.130;-2.040;2023-02-22T13:30:01;6.88;;;2.17;;
61397;SDS011;47267;48.130;-2.040;2023-02-22T13:51:54;5.93;;;2.00;;
61397;SDS011;47267;48.130;-2.040;2023-02-22T13:57:16;5.35;;;1.67;;
61397;SDS011;47267;48.130;-2.040;2023-02-22T14:05:45;5.35;;;1.65;;
61397;SDS011;47267;48.130;-2.040;2023-02-22T14:13:19;4.97;;;1.67;;
61397;SDS011;47267;48.130;-2.040;2023-02-22T14:18:41;3.78;;;1.52;;
61397;SDS011;47267;48.130;-2.040;2023-02-22T14:21:20;5.70;;;1.67;;
61397;SDS011;47267;48.130;-2.040;2023-02-22T14:23:47;3.50;;;1.60;;
61397;SDS011;47267;48.130;-2.040;2023-02-22T14:26:31;7.32;;;1.83;;
61397;SDS011;47267;48.130;-2.040;2023-02-22T14:31:32;3.75;;;1.50;;
61397;SDS011;47267;48.130;-2.040;2023-02-22T14:34:12;2.70;;;1.33;;
61397;SDS011;47267;48.130;-2.040;2023-02-22T14:36:41;2.95;;;1.40;;
61397;SDS011;47267;48.130;-2.040;2023-02-22T14:42:33;4.13;;;1.42;;
61397;SDS011;47267;48.130;-2.040;2023-02-22T14:44:47;2.83;;;1.48;;
61397;SDS011;47267;48.130;-2.040;2023-02-22T14:50:16;2.45;;;1.13;;
61397;SDS011;47267;48.130;-2.040;2023-02-22T14:53:06;3.05;;;1.40;;
61397;SDS011;47267;48.130;-2.040;2023-02-22T14:58:20;3.55;;;1.40;;
61397;SDS011;47267;48.130;-2.040;2023-02-22T15:03:48;3.35;;;1.30;;
61397;SDS011;47267;48.130;-2.040;2023-02-22T15:06:21;4.07;;;1.40;;
61397;SDS011;47267;48.130;-2.040;2023-02-22T15:09:11;3.83;;;1.58;;
61397;SDS011;47267;48.130;-2.040;2023-02-22T15:11:39;2.33;;;1.33;;
61397;SDS011;47267;48.130;-2.040;2023-02-22T15:14:13;4.80;;;1.45;;
61397;SDS011;47267;48.130;-2.040;2023-02-22T15:16:46;2.30;;;1.02;;
61397;SDS011;47267;48.130;-2.040;2023-02-22T15:19:24;2.67;;;1.13;;
61397;SDS011;47267;48.130;-2.040;2023-02-22T15:21:54;2.35;;;1.17;;
61397;SDS011;47267;48.130;-2.040;2023-02-22T15:24:25;2.42;;;1.40;;
61397;SDS011;47267;48.130;-2.040;2023-02-22T15:26:54;5.97;;;1.40;;
61397;SDS011;47267;48.130;-2.040;2023-02-22T15:29:21;2.10;;;1.15;;
61397;SDS011;47267;48.130;-2.040;2023-02-22T15:31:49;6.68;;;1.33;;
61397;SDS011;47267;48.130;-2.040;2023-02-22T15:34:22;4.32;;;1.70;;
61397;SDS011;47267;48.130;-2.040;2023-02-22T15:36:52;5.90;;;1.63;;
61397;SDS011;47267;48.130;-2.040;2023-02-22T15:39:30;4.80;;;1.50;;
61397;SDS011;47267;48.130;-2.040;2023-02-22T15:44:49;3.33;;;1.00;;
61397;SDS011;47267;48.130;-2.040;2023-02-22T15:52:39;3.05;;;1.20;;
61397;SDS011;47267;48.130;-2.040;2023-02-22T15:55:14;2.15;;;1.15;;
61397;SDS011;47267;48.130;-2.040;2023-02-22T15:57:41;3.10;;;1.45;;
61397;SDS011;47267;48.130;-2.040;2023-02-22T16:00:16;4.68;;;1.08;;
61397;SDS011;47267;48.130;-2.040;2023-02-22T16:02:47;6.95;;;1.33;;
61397;SDS011;47267;48.130;-2.040;2023-02-22T16:05:15;2.85;;;1.23;;
61397;SDS011;47267;48.130;-2.040;2023-02-22T16:08:00;3.35;;;1.23;;
61397;SDS011;47267;48.130;-2.040;2023-02-22T16:10:27;2.38;;;1.10;;
61397;SDS011;47267;48.130;-2.040;2023-02-22T16:13:08;5.10;;;1.50;;
61397;SDS011;47267;48.130;-2.040;2023-02-22T16:15:59;4.40;;;1.38;;
61397;SDS011;47267;48.130;-2.040;2023-02-22T16:21:07;3.28;;;1.67;;
61397;SDS011;47267;48.130;-2.040;2023-02-22T16:28:49;5.15;;;1.50;;
61397;SDS011;47267;48.130;-2.040;2023-02-22T16:31:20;5.30;;;1.80;;
61397;SDS011;47267;48.130;-2.040;2023-02-22T16:33:52;2.70;;;1.33;;
61397;SDS011;47267;48.130;-2.040;2023-02-22T16:36:18;3.03;;;1.38;;
61397;SDS011;47267;48.130;-2.040;2023-02-22T16:38:47;6.15;;;2.08;;
61397;SDS011;47267;48.130;-2.040;2023-02-22T16:41:17;3.85;;;1.73;;
61397;SDS011;47267;48.130;-2.040;2023-02-22T16:43:46;3.95;;;1.67;;
61397;SDS011;47267;48.130;-2.040;2023-02-22T16:46:15;3.17;;;1.50;;
61397;SDS011;47267;48.130;-2.040;2023-02-22T16:48:43;4.18;;;1.33;;
61397;SDS011;47267;48.130;-2.040;2023-02-22T16:53:44;4.82;;;1.50;;
61397;SDS011;47267;48.130;-2.040;2023-02-22T16:56:13;3.30;;;1.35;;
61397;SDS011;47267;48.130;-2.040;2023-02-22T16:58:40;6.60;;;1.90;;
61397;SDS011;47267;48.130;-2.040;2023-02-22T17:01:07;3.65;;;1.83;;
61397;SDS011;47267;48.130;-2.040;2023-02-22T17:03:33;2.72;;;1.60;;
61397;SDS011;47267;48.130;-2.040;2023-02-22T17:05:59;2.47;;;1.40;;
61397;SDS011;47267;48.130;-2.040;2023-02-22T17:08:26;3.33;;;1.73;;
61397;SDS011;47267;48.130;-2.040;2023-02-22T17:10:53;3.40;;;1.92;;
61397;SDS011;47267;48.130;-2.040;2023-02-22T17:13:22;3.35;;;2.00;;
61397;SDS011;47267;48.130;-2.040;2023-02-22T17:15:49;4.32;;;2.35;;
61397;SDS011;47267;48.130;-2.040;2023-02-22T17:18:17;4.40;;;2.65;;
61397;SDS011;47267;48.130;-2.040;2023-02-22T17:20:47;8.55;;;3.03;;
61397;SDS011;47267;48.130;-2.040;2023-02-22T17:23:13;5.22;;;2.55;;
61397;SDS011;47267;48.130;-2.040;2023-02-22T17:25:40;5.75;;;2.80;;
61397;SDS011;47267;48.130;-2.040;2023-02-22T17:28:09;7.68;;;3.50;;
61397;SDS011;47267;48.130;-2.040;2023-02-22T17:30:35;7.05;;;3.58;;
61397;SDS011;47267;48.130;-2.040;2023-02-22T17:33:02;9.30;;;3.42;;
61397;SDS011;47267;48.130;-2.040;2023-02-22T17:35:30;4.90;;;2.75;;
61397;SDS011;47267;48.130;-2.040;2023-02-22T17:37:58;5.55;;;3.40;;
61397;SDS011;47267;48.130;-2.040;2023-02-22T17:40:25;5.38;;;3.00;;
61397;SDS011;47267;48.130;-2.040;2023-02-22T17:42:52;4.38;;;2.88;;
61397;SDS011;47267;48.130;-2.040;2023-02-22T17:45:22;5.53;;;2.95;;
61397;SDS011;47267;48.130;-2.040;2023-02-22T17:47:49;4.82;;;3.00;;
61397;SDS011;47267;48.130;-2.040;2023-02-22T17:50:16;7.00;;;3.30;;
61397;SDS011;47267;48.130;-2.040;2023-02-22T17:52:43;5.43;;;3.28;;